Time;durP1;ratioP1;P1;durP2;ratioP2;P2;SDS_P1;SDS_P2;PMS_P1;PMS_P2;Temp;Humidity;BMP_temperature;BMP_pressure;BME280_temperature;BME280_humidity;BME280_pressure;Samples;Min_cycle;Max_cycle;Signal;HPM_P1;HPM_P2
2022/04/26 04:00:28;;;;;;;5.45;4.75;;;5.40;99.90;;;;;;6056665;23;20190;31
2022/04/26 04:02:56;;;;;;;5.75;5.32;;;5.50;99.90;;;;;;4932321;29;20245;-70
2022/04/26 04:05:23;;;;;;;6.78;5.25;;;5.50;99.90;;;;;;4934983;29;20210;-70
2022/04/26 04:07:50;;;;;;;6.90;5.10;;;5.40;99.90;;;;;;4935088;29;20264;-70
2022/04/26 04:10:16;;;;;;;6.07;5.00;;;5.40;99.90;;;;;;4934313;29;20800;-69
2022/04/26 04:12:43;;;;;;;5.40;4.90;;;5.40;99.90;;;;;;4934630;29;20257;-71
2022/04/26 04:15:10;;;;;;;6.28;5.20;;;5.40;99.90;;;;;;4933592;29;20198;-70
2022/04/26 04:17:37;;;;;;;8.55;5.90;;;5.40;99.90;;;;;;4934857;29;20210;-70
2022/04/26 04:20:06;;;;;;;8.05;5.22;;;5.40;99.90;;;;;;4934379;29;20584;-70
2022/04/26 04:22:33;;;;;;;6.45;5.30;;;5.40;99.90;;;;;;4934561;29;20981;-70
2022/04/26 04:24:59;;;;;;;7.93;5.18;;;5.40;99.90;;;;;;4934681;29;20257;-71
2022/04/26 04:27:26;;;;;;;7.45;5.30;;;5.60;99.90;;;;;;4934439;29;20281;-71
2022/04/26 04:29:54;;;;;;;7.57;5.22;;;5.60;99.90;;;;;;4934283;29;20272;-70
2022/04/26 04:32:20;;;;;;;6.78;5.28;;;5.70;99.90;;;;;;4933447;29;20332;-70
2022/04/26 04:34:47;;;;;;;6.57;5.78;;;5.70;99.90;;;;;;4934568;29;20678;-70
2022/04/26 04:37:15;;;;;;;6.38;5.28;;;5.70;99.90;;;;;;4934439;29;20210;-70
2022/04/26 04:39:42;;;;;;;5.97;5.38;;;5.80;99.90;;;;;;4934083;29;20606;-71
2022/04/26 04:42:08;;;;;;;5.35;4.95;;;5.90;99.90;;;;;;4933990;29;20301;-70
2022/04/26 04:44:35;;;;;;;6.00;5.45;;;6.30;99.90;;;;;;4934184;29;20585;-69
2022/04/26 04:47:02;;;;;;;6.60;6.03;;;6.60;99.90;;;;;;4933598;29;20221;-70
2022/04/26 04:49:29;;;;;;;5.43;5.03;;;6.80;99.90;;;;;;4934203;29;20218;-70
2022/04/26 04:51:55;;;;;;;6.22;4.43;;;7.00;99.90;;;;;;4933049;29;20229;-69
2022/04/26 04:54:23;;;;;;;7.95;5.32;;;7.20;99.90;;;;;;4934297;29;20214;-71
2022/04/26 04:56:50;;;;;;;6.32;5.38;;;7.30;99.90;;;;;;4933963;29;20671;-71
2022/04/26 04:59:17;;;;;;;5.75;5.25;;;7.50;99.90;;;;;;4934096;29;20316;-70
2022/04/26 05:01:44;;;;;;;5.50;4.43;;;7.40;99.90;;;;;;4932515;29;20328;-71
2022/04/26 05:04:10;;;;;;;4.90;4.60;;;7.30;99.90;;;;;;4928611;29;20257;-71
2022/04/26 05:06:37;;;;;;;5.55;5.15;;;7.30;99.90;;;;;;4933436;29;20202;-70
2022/04/26 05:09:04;;;;;;;5.88;5.35;;;7.20;99.90;;;;;;4933909;29;20213;-70
2022/04/26 05:11:32;;;;;;;5.90;5.40;;;7.20;99.90;;;;;;4933267;29;20296;-71
2022/04/26 05:13:58;;;;;;;6.43;5.75;;;7.10;99.90;;;;;;4933880;29;20647;-71
2022/04/26 05:16:25;;;;;;;5.70;5.10;;;7.10;99.90;;;;;;4933020;29;20586;-69
2022/04/26 05:18:51;;;;;;;5.35;4.85;;;7.10;99.90;;;;;;4933709;29;20213;-70
2022/04/26 05:21:18;;;;;;;6.38;5.72;;;7.00;99.90;;;;;;4933263;29;20229;-70
2022/04/26 05:26:29;;;;;;;5.13;4.70;;;7.00;99.90;;;;;;4933574;29;20600;-71
2022/04/26 05:28:57;;;;;;;5.00;4.70;;;7.00;99.90;;;;;;4933507;29;20206;-70
2022/04/26 05:31:24;;;;;;;6.45;5.85;;;6.90;99.90;;;;;;4932501;29;20229;-71
2022/04/26 05:33:51;;;;;;;4.50;4.10;;;6.90;99.90;;;;;;4933442;29;20225;-71
2022/04/26 05:36:17;;;;;;;6.45;4.53;;;6.70;99.90;;;;;;4933438;29;20317;-71
2022/04/26 05:38:44;;;;;;;8.00;5.53;;;6.60;99.90;;;;;;4933307;29;20241;-69
2022/04/26 05:41:13;;;;;;;6.90;5.88;;;6.80;99.90;;;;;;4932999;29;20230;-69
2022/04/26 05:43:40;;;;;;;6.00;5.40;;;6.90;99.90;;;;;;4933739;29;20581;-69
2022/04/26 05:46:12;;;;;;;6.78;6.07;;;7.00;99.90;;;;;;4932662;29;20257;-69
2022/04/26 05:48:40;;;;;;;6.97;5.90;;;7.00;99.90;;;;;;4933520;29;20293;-69
2022/04/26 05:51:06;;;;;;;6.07;5.57;;;7.20;99.90;;;;;;4932530;29;20726;-69
2022/04/26 05:53:35;;;;;;;8.30;5.28;;;7.30;99.90;;;;;;4933343;29;20660;-68
2022/04/26 05:56:03;;;;;;;5.72;5.22;;;7.30;99.90;;;;;;4933437;29;20309;-69
2022/04/26 05:58:30;;;;;;;6.75;6.10;;;7.40;99.90;;;;;;4933148;29;20309;-68
2022/04/26 06:00:56;;;;;;;6.03;5.20;;;7.40;99.90;;;;;;4931741;29;20268;-68
2022/04/26 06:03:24;;;;;;;6.00;5.50;;;7.50;99.90;;;;;;4935252;29;20214;-68
2022/04/26 06:05:52;;;;;;;7.57;6.47;;;7.50;99.90;;;;;;4937157;29;20214;-69
2022/04/26 06:08:18;;;;;;;6.18;5.55;;;7.90;99.90;;;;;;4936785;29;20240;-68
2022/04/26 06:10:45;;;;;;;6.30;5.45;;;8.60;99.90;;;;;;4936237;29;20294;-68
2022/04/26 06:13:12;;;;;;;8.38;7.47;;;9.50;99.90;;;;;;4936825;29;20233;-70
2022/04/26 06:15:38;;;;;;;5.60;5.20;;;10.10;99.90;;;;;;4936289;29;20313;-69
2022/04/26 06:18:05;;;;;;;8.60;5.90;;;10.70;99.90;;;;;;4936413;29;20532;-69
2022/04/26 06:20:34;;;;;;;6.10;5.70;;;11.50;99.90;;;;;;4936297;29;20501;-71
2022/04/26 06:23:00;;;;;;;6.13;5.50;;;12.20;99.90;;;;;;4936654;29;20461;-69
2022/04/26 06:25:27;;;;;;;5.70;5.23;;;12.60;99.90;;;;;;4936847;29;20477;-69
2022/04/26 06:27:54;;;;;;;6.23;5.80;;;12.80;99.90;;;;;;4936140;29;20476;-69
2022/04/26 06:30:20;;;;;;;7.20;6.70;;;13.40;99.90;;;;;;4935545;29;20530;-69
2022/04/26 06:32:47;;;;;;;6.27;5.83;;;13.90;99.90;;;;;;4936314;29;20489;-70
2022/04/26 06:35:13;;;;;;;6.30;5.90;;;14.10;99.90;;;;;;4936734;29;20469;-69
2022/04/26 06:37:41;;;;;;;5.80;5.50;;;14.00;99.90;;;;;;4936862;29;20473;-69
2022/04/26 06:40:09;;;;;;;6.73;6.13;;;14.20;99.90;;;;;;4936440;29;20953;-69
2022/04/26 06:42:35;;;;;;;6.50;6.00;;;14.70;99.90;;;;;;4936674;29;20482;-70
2022/04/26 06:45:02;;;;;;;6.40;6.00;;;15.00;99.90;;;;;;4936364;29;20475;-69
2022/04/26 06:47:28;;;;;;;5.90;5.43;;;15.40;99.90;;;;;;4938228;29;20536;-70
2022/04/26 06:49:55;;;;;;;6.20;5.80;;;16.00;99.90;;;;;;4948520;29;20473;-71
2022/04/26 06:52:22;;;;;;;6.77;6.07;;;16.10;99.90;;;;;;4948281;29;20485;-70
2022/04/26 06:54:50;;;;;;;6.60;6.10;;;16.20;99.90;;;;;;4947670;29;20636;-70
2022/04/26 06:57:17;;;;;;;6.70;6.17;;;16.00;99.90;;;;;;4948393;29;20551;-71
2022/04/26 06:59:44;;;;;;;5.60;5.30;;;16.10;99.90;;;;;;4948488;29;20545;-70
2022/04/26 07:02:10;;;;;;;5.90;5.50;;;16.10;99.90;;;;;;4947141;29;20989;-70
2022/04/26 07:04:37;;;;;;;5.63;5.33;;;16.40;99.90;;;;;;4941369;29;20493;-71
2022/04/26 07:07:05;;;;;;;5.93;5.60;;;16.20;99.90;;;;;;4945710;29;20517;-70
2022/04/26 07:09:31;;;;;;;6.50;6.00;;;15.80;99.90;;;;;;4940280;29;20553;-71
2022/04/26 07:11:59;;;;;;;6.63;6.13;;;15.40;99.90;;;;;;4936940;29;20541;-71
2022/04/26 07:14:26;;;;;;;6.80;6.27;;;15.20;99.90;;;;;;4936409;29;20493;-70
2022/04/26 07:16:52;;;;;;;8.53;7.83;;;14.80;99.90;;;;;;4936397;29;20558;-70
2022/04/26 07:19:19;;;;;;;7.10;6.30;;;14.40;99.90;;;;;;4938708;29;20532;-69
2022/04/26 07:21:47;;;;;;;6.33;5.83;;;14.50;99.90;;;;;;4935545;29;20485;-68
2022/04/26 07:24:14;;;;;;;6.10;5.60;;;15.00;99.90;;;;;;4936215;29;20462;-69
2022/04/26 07:26:42;;;;;;;6.30;5.70;;;15.30;99.90;;;;;;4935923;29;20470;-69
2022/04/26 07:29:10;;;;;;;6.33;5.93;;;15.70;99.90;;;;;;4936044;29;20536;-68
2022/04/26 07:31:37;;;;;;;5.47;5.07;;;15.60;99.90;;;;;;4934789;29;20576;-68
2022/04/26 07:34:21;;;;;;;6.70;6.20;;;15.60;99.90;;;;;;4936090;29;20488;-68
2022/04/26 07:36:48;;;;;;;7.10;6.60;;;15.70;99.90;;;;;;4935760;29;20565;-69
2022/04/26 07:39:17;;;;;;;7.30;6.60;;;15.20;99.90;;;;;;4935739;29;20458;-68
2022/04/26 07:41:45;;;;;;;6.37;5.87;;;14.40;99.90;;;;;;4934986;29;20576;-70
2022/04/26 07:44:13;;;;;;;6.80;6.30;;;14.00;99.90;;;;;;4935747;29;20474;-68
2022/04/26 07:46:41;;;;;;;7.80;7.10;;;13.70;99.90;;;;;;4934607;29;20465;-69
2022/04/26 07:49:08;;;;;;;5.73;5.20;;;13.20;99.90;;;;;;4935589;29;20930;-69
2022/04/26 07:51:34;;;;;;;6.60;6.00;;;12.90;99.90;;;;;;4934276;29;20486;-70
2022/04/26 07:54:01;;;;;;;7.17;6.50;;;12.70;99.90;;;;;;4929392;29;20547;-69
2022/04/26 07:56:28;;;;;;;6.43;5.97;;;12.60;99.90;;;;;;4933820;29;20609;-69
2022/04/26 07:58:58;;;;;;;7.40;6.70;;;12.60;99.90;;;;;;4935382;29;20583;-69
2022/04/26 08:01:26;;;;;;;6.47;5.93;;;12.50;99.90;;;;;;4933679;29;20501;-71
2022/04/26 08:03:53;;;;;;;6.30;5.90;;;12.40;99.90;;;;;;4935075;29;20501;-71
2022/04/26 08:06:20;;;;;;;7.00;6.20;;;12.40;99.90;;;;;;4934768;29;20465;-69
2022/04/26 08:08:46;;;;;;;6.97;6.27;;;12.40;99.90;;;;;;4935377;29;20485;-70
2022/04/26 08:11:13;;;;;;;18.20;8.23;;;12.30;99.90;;;;;;4934148;29;20560;-70
2022/04/26 08:13:40;;;;;;;7.00;6.40;;;12.40;99.90;;;;;;4934990;29;20520;-70
2022/04/26 08:16:07;;;;;;;8.77;6.40;;;12.30;99.90;;;;;;4933996;29;20867;-70
2022/04/26 08:18:35;;;;;;;6.80;6.20;;;12.40;99.90;;;;;;4934992;29;20476;-69
2022/04/26 08:21:02;;;;;;;8.15;6.28;;;12.50;99.90;;;;;;4934009;29;20519;-69
2022/04/26 08:23:30;;;;;;;6.60;6.10;;;12.50;99.90;;;;;;4934999;29;20577;-71
2022/04/26 08:28:41;;;;;;;7.40;6.70;;;12.70;99.90;;;;;;4934518;29;20958;-70
2022/04/26 08:31:08;;;;;;;9.07;8.17;;;12.70;99.90;;;;;;4933156;29;20485;-69
2022/04/26 08:33:36;;;;;;;7.70;7.00;;;12.80;99.90;;;;;;4934434;29;21057;-69
2022/04/26 08:36:03;;;;;;;7.73;6.87;;;12.80;99.90;;;;;;4934358;29;20473;-70
2022/04/26 08:38:29;;;;;;;6.53;5.93;;;12.90;99.90;;;;;;4934531;29;20469;-70
2022/04/26 08:40:56;;;;;;;6.43;5.83;;;13.10;99.90;;;;;;4933709;29;20493;-68
2022/04/26 08:43:22;;;;;;;7.97;7.17;;;13.20;99.90;;;;;;4934574;29;20469;-69
2022/04/26 08:45:49;;;;;;;8.20;6.57;;;13.30;99.90;;;;;;4933278;29;20481;-69
2022/04/26 08:51:03;;;;;;;8.57;6.07;;;13.30;99.90;;;;;;4933677;29;20973;-70
2022/04/26 08:53:32;;;;;;;7.70;6.23;;;13.40;99.90;;;;;;4934266;29;20490;-71
2022/04/26 08:56:01;;;;;;;7.23;6.50;;;13.40;99.90;;;;;;4933861;29;20502;-69
2022/04/26 08:58:31;;;;;;;7.80;7.00;;;13.40;99.90;;;;;;4934329;29;20505;-70
2022/04/26 09:01:05;;;;;;;6.40;5.90;;;13.50;99.90;;;;;;4932444;29;20500;-70
2022/04/26 09:03:32;;;;;;;7.73;7.03;;;13.60;99.90;;;;;;4932995;29;20477;-70
2022/04/26 09:06:08;;;;;;;6.80;6.30;;;13.70;99.90;;;;;;4928436;29;21014;-69
2022/04/26 09:08:36;;;;;;;6.73;6.13;;;13.70;99.90;;;;;;4933700;29;20795;-70
2022/04/26 09:11:04;;;;;;;6.93;5.60;;;13.80;99.90;;;;;;4933318;29;20497;-70
2022/04/26 09:13:40;;;;;;;6.03;5.50;;;13.90;99.90;;;;;;4933769;29;20493;-69
2022/04/26 09:16:16;;;;;;;6.40;5.63;;;14.00;99.90;;;;;;4932971;29;20883;-69
2022/04/26 09:18:51;;;;;;;7.37;6.73;;;14.10;99.90;;;;;;4933766;29;20469;-69
2022/04/26 09:21:20;;;;;;;6.20;5.60;;;14.20;99.90;;;;;;4933146;29;20560;-69
2022/04/26 09:23:47;;;;;;;6.03;5.60;;;14.20;99.90;;;;;;4933892;29;20839;-70
2022/04/26 09:26:16;;;;;;;6.50;5.90;;;14.30;99.90;;;;;;4933570;29;20549;-69
2022/04/26 09:28:44;;;;;;;6.30;5.67;;;14.30;99.90;;;;;;4933757;29;20516;-70
2022/04/26 09:31:19;;;;;;;6.80;5.20;;;14.30;99.90;;;;;;4932039;29;20500;-69
2022/04/26 09:33:51;;;;;;;4.50;4.10;;;14.40;99.90;;;;;;4933256;29;20491;-69
2022/04/26 09:36:21;;;;;;;4.77;4.37;;;14.30;99.90;;;;;;4933746;29;20466;-68
2022/04/26 09:38:52;;;;;;;5.80;5.30;;;14.40;99.90;;;;;;4932999;29;20473;-68
2022/04/26 09:41:20;;;;;;;5.53;5.03;;;14.50;99.90;;;;;;4932942;29;20552;-68
2022/04/26 09:43:56;;;;;;;5.17;4.73;;;14.60;99.90;;;;;;4933353;29;21014;-67
2022/04/26 09:46:23;;;;;;;7.80;5.83;;;14.60;99.90;;;;;;4932523;29;20961;-69
2022/04/26 09:48:53;;;;;;;5.90;5.03;;;14.60;99.90;;;;;;4933437;29;20477;-68
2022/04/26 09:51:21;;;;;;;5.20;4.70;;;14.60;99.90;;;;;;4932670;29;20568;-69
2022/04/26 09:53:48;;;;;;;5.43;4.93;;;14.70;99.90;;;;;;4930939;29;20500;-68
2022/04/26 09:56:15;;;;;;;4.90;4.50;;;14.70;99.90;;;;;;4933088;29;20513;-68
2022/04/26 09:58:44;;;;;;;5.90;5.33;;;14.70;99.90;;;;;;4933211;29;20557;-68
2022/04/26 10:01:11;;;;;;;5.97;5.47;;;14.70;99.90;;;;;;4931676;29;20982;-68
2022/04/26 10:03:40;;;;;;;5.30;4.97;;;14.80;99.90;;;;;;4933417;29;20477;-68
2022/04/26 10:06:08;;;;;;;5.37;5.00;;;15.10;99.90;;;;;;4933043;29;20993;-69
2022/04/26 10:08:37;;;;;;;6.23;5.70;;;15.00;99.90;;;;;;4933173;29;21026;-68
2022/04/26 10:11:04;;;;;;;5.57;5.13;;;15.20;99.90;;;;;;4932274;29;20584;-69
2022/04/26 10:13:35;;;;;;;5.10;4.80;;;15.30;99.90;;;;;;4933100;29;20905;-68
2022/04/26 10:16:05;;;;;;;4.63;4.33;;;15.40;99.90;;;;;;4958970;23;20496;-69
2022/04/26 10:18:33;;;;;;;4.70;4.30;;;15.50;99.90;;;;;;4952512;28;20460;-69
2022/04/26 10:21:00;;;;;;;5.00;4.70;;;15.60;99.90;;;;;;4951639;28;20973;-69
2022/04/26 10:23:28;;;;;;;4.90;4.60;;;15.40;99.90;;;;;;4952681;28;20475;-69
2022/04/26 10:26:24;;;;;;;5.13;4.70;;;15.40;99.90;;;;;;4951797;28;20481;-68
2022/04/26 10:28:53;;;;;;;4.40;4.10;;;15.50;99.90;;;;;;4945929;29;20690;-69
2022/04/26 10:31:21;;;;;;;5.50;5.10;;;15.60;99.90;;;;;;4950803;28;20460;-69
2022/04/26 10:33:48;;;;;;;5.03;4.73;;;15.70;99.90;;;;;;4951774;28;20806;-69
2022/04/26 10:36:36;;;;;;;4.27;3.90;;;15.70;99.90;;;;;;4951566;28;20500;-69
2022/04/26 10:39:30;;;;;;;5.07;4.70;;;15.90;99.90;;;;;;4952073;29;20562;-69
2022/04/26 10:41:59;;;;;;;5.30;4.93;;;16.00;99.90;;;;;;4951490;28;20515;-68
2022/04/26 10:44:32;;;;;;;4.67;4.27;;;16.10;99.90;;;;;;4951745;29;20543;-68
2022/04/26 10:47:35;;;;;;;5.10;4.77;;;16.10;99.90;;;;;;4951363;28;20488;-68
2022/04/26 10:50:05;;;;;;;5.73;4.37;;;16.30;99.90;;;;;;4952923;28;20472;-68
2022/04/26 10:52:41;;;;;;;4.73;4.33;;;16.40;99.80;;;;;;4955403;29;20472;-69
2022/04/26 10:55:19;;;;;;;4.83;4.47;;;16.20;99.50;;;;;;4955124;29;20483;-69
2022/04/26 10:57:55;;;;;;;5.03;4.73;;;16.00;99.70;;;;;;4955165;28;21024;-69
2022/04/26 11:00:34;;;;;;;5.60;5.10;;;15.90;99.90;;;;;;4954271;28;20845;-68
2022/04/26 11:03:03;;;;;;;5.27;4.50;;;15.90;99.90;;;;;;4954680;29;20468;-69
2022/04/26 11:05:32;;;;;;;4.70;4.40;;;15.90;99.90;;;;;;4955227;28;20492;-68
2022/04/26 11:07:59;;;;;;;4.63;4.43;;;16.00;99.50;;;;;;4955371;29;20477;-68
2022/04/26 11:10:28;;;;;;;4.97;4.67;;;16.20;99.70;;;;;;4954428;29;20495;-68
2022/04/26 11:12:56;;;;;;;5.13;4.73;;;16.30;99.00;;;;;;4954933;28;20535;-67
2022/04/26 11:15:24;;;;;;;6.63;5.60;;;16.20;99.10;;;;;;4954223;29;20468;-68
2022/04/26 11:17:52;;;;;;;5.30;5.00;;;16.40;99.10;;;;;;4948329;28;21070;-68
2022/04/26 11:20:21;;;;;;;4.30;4.00;;;16.60;99.30;;;;;;4954631;28;20465;-68
2022/04/26 11:22:50;;;;;;;4.10;3.90;;;16.80;98.60;;;;;;4954782;29;20469;-69
2022/04/26 11:28:12;;;;;;;5.83;4.20;;;17.00;97.10;;;;;;4954752;29;20448;-68
2022/04/26 11:30:40;;;;;;;4.90;4.60;;;17.10;96.80;;;;;;4954188;29;20563;-68
2022/04/26 11:33:10;;;;;;;7.00;4.73;;;17.10;95.90;;;;;;4954553;29;20465;-69
2022/04/26 11:35:38;;;;;;;5.07;4.67;;;17.10;94.90;;;;;;4954509;28;20949;-69
2022/04/26 11:38:08;;;;;;;4.30;4.10;;;16.90;94.90;;;;;;4954590;29;20520;-69
2022/04/26 11:40:38;;;;;;;4.50;4.30;;;17.00;94.90;;;;;;4953880;28;20547;-69
2022/04/26 11:43:14;;;;;;;5.03;4.83;;;17.10;95.60;;;;;;4954812;29;20471;-69
2022/04/26 11:45:43;;;;;;;5.60;4.70;;;17.10;95.30;;;;;;4954032;28;20503;-69
2022/04/26 11:48:12;;;;;;;4.80;4.20;;;16.90;95.30;;;;;;4954186;29;20902;-69
2022/04/26 11:50:39;;;;;;;4.43;4.17;;;16.80;96.20;;;;;;4954079;29;20494;-69
2022/04/26 11:53:07;;;;;;;4.57;4.17;;;16.80;97.00;;;;;;4952378;29;20615;-69
2022/04/26 11:55:35;;;;;;;5.60;5.20;;;16.90;96.40;;;;;;4953678;28;20624;-69
2022/04/26 11:58:07;;;;;;;4.67;4.47;;;16.70;95.80;;;;;;4954118;29;20918;-69
2022/04/26 12:00:36;;;;;;;4.83;4.43;;;16.50;95.80;;;;;;4952612;28;20480;-69
2022/04/26 12:03:04;;;;;;;5.23;4.93;;;16.50;96.60;;;;;;4953565;29;20508;-69
2022/04/26 12:05:37;;;;;;;5.00;4.53;;;16.30;96.20;;;;;;4953795;28;20484;-69
2022/04/26 12:08:08;;;;;;;4.37;4.00;;;16.20;96.00;;;;;;4954210;29;20853;-69
2022/04/26 12:10:35;;;;;;;5.63;5.20;;;16.20;95.90;;;;;;4953430;29;20469;-69
2022/04/26 12:13:03;;;;;;;5.63;5.13;;;16.20;95.20;;;;;;4953736;29;20471;-69
2022/04/26 12:15:31;;;;;;;5.00;4.60;;;16.40;95.30;;;;;;4953231;28;20626;-69
2022/04/26 12:18:13;;;;;;;5.00;4.70;;;16.50;94.30;;;;;;4953540;29;20464;-69
2022/04/26 12:20:56;;;;;;;5.40;4.90;;;16.70;94.10;;;;;;4953141;28;20882;-68
2022/04/26 12:23:24;;;;;;;4.27;4.10;;;16.80;93.80;;;;;;4953775;29;20469;-69
2022/04/26 12:25:55;;;;;;;4.87;4.57;;;16.80;94.80;;;;;;4953390;28;20586;-69
2022/04/26 12:28:22;;;;;;;4.10;3.90;;;16.80;93.30;;;;;;4952582;29;20516;-69
2022/04/26 12:30:49;;;;;;;5.00;4.43;;;16.80;93.50;;;;;;4952105;29;20882;-69
2022/04/26 12:33:27;;;;;;;4.33;3.90;;;16.90;93.40;;;;;;4953599;29;20549;-69
2022/04/26 12:36:01;;;;;;;5.00;4.73;;;16.90;92.80;;;;;;4953243;28;20865;-69
2022/04/26 12:38:28;;;;;;;3.97;3.70;;;17.00;92.60;;;;;;4953966;28;20478;-69
2022/04/26 12:41:04;;;;;;;5.10;4.60;;;17.10;93.50;;;;;;4953057;28;20882;-69
2022/04/26 12:43:31;;;;;;;5.23;4.53;;;17.10;92.60;;;;;;4953601;29;20464;-69
2022/04/26 12:46:00;;;;;;;4.07;3.87;;;17.20;92.50;;;;;;4952551;28;20576;-69
2022/04/26 12:51:27;;;;;;;4.90;4.60;;;17.40;93.00;;;;;;4911811;29;20458;-69
2022/04/26 12:53:55;;;;;;;4.83;4.53;;;17.60;93.60;;;;;;4944513;28;20456;-69
2022/04/26 12:56:22;;;;;;;5.00;4.77;;;17.50;93.40;;;;;;4952810;28;21013;-69
2022/04/26 12:58:50;;;;;;;4.50;4.30;;;17.50;93.50;;;;;;4953115;29;20464;-69
2022/04/26 13:01:17;;;;;;;4.73;4.43;;;17.50;93.00;;;;;;4951772;28;20496;-69
2022/04/26 13:03:47;;;;;;;4.23;4.03;;;17.30;92.70;;;;;;4953755;29;20834;-69
2022/04/26 13:06:16;;;;;;;6.00;4.60;;;17.40;93.00;;;;;;4953054;28;21024;-69
2022/04/26 13:08:44;;;;;;;4.10;3.80;;;17.40;92.20;;;;;;4953640;29;20863;-69
2022/04/26 13:11:11;;;;;;;5.10;4.63;;;17.50;92.30;;;;;;4953200;29;20468;-69
2022/04/26 13:13:40;;;;;;;5.00;4.60;;;17.50;91.80;;;;;;4952913;28;20898;-69
2022/04/26 13:16:07;;;;;;;4.63;4.43;;;17.30;91.60;;;;;;4947079;29;20815;-70
2022/04/26 13:18:34;;;;;;;4.00;3.80;;;17.10;91.70;;;;;;4952879;29;20472;-69
2022/04/26 13:21:02;;;;;;;4.43;4.13;;;17.10;92.20;;;;;;4952922;28;20481;-69
2022/04/26 13:23:32;;;;;;;3.73;3.43;;;17.10;91.30;;;;;;4953551;28;20469;-69
2022/04/26 13:25:59;;;;;;;4.47;4.27;;;17.10;90.60;;;;;;4953595;28;20504;-69
2022/04/26 13:28:26;;;;;;;4.53;4.13;;;17.00;90.80;;;;;;4953397;28;20476;-69
2022/04/26 13:30:53;;;;;;;4.07;3.77;;;17.00;91.10;;;;;;4951625;28;20475;-69
2022/04/26 13:33:20;;;;;;;4.50;4.20;;;17.00;90.80;;;;;;4952655;28;20465;-69
2022/04/26 13:35:47;;;;;;;4.63;4.33;;;17.00;90.80;;;;;;4952414;28;20982;-69
2022/04/26 13:38:16;;;;;;;4.27;4.07;;;17.00;90.80;;;;;;4953284;28;20469;-69
2022/04/26 13:40:43;;;;;;;4.47;4.20;;;17.10;91.00;;;;;;4952564;28;20464;-69
2022/04/26 13:43:11;;;;;;;5.23;4.93;;;17.30;90.40;;;;;;4952839;28;20576;-69
2022/04/26 13:45:39;;;;;;;4.70;4.40;;;17.30;89.90;;;;;;4952028;28;20488;-69
2022/04/26 13:48:10;;;;;;;4.20;4.00;;;17.40;89.80;;;;;;4952269;28;20500;-69
2022/04/26 13:50:36;;;;;;;4.27;3.97;;;17.50;90.20;;;;;;4951956;28;20471;-69
2022/04/26 13:53:03;;;;;;;4.03;3.93;;;17.60;90.30;;;;;;4951134;28;20515;-69
2022/04/26 13:55:31;;;;;;;4.53;3.93;;;17.60;90.20;;;;;;4951419;28;20461;-69
2022/04/26 13:57:58;;;;;;;4.40;4.10;;;17.60;90.80;;;;;;4952201;29;20515;-69
2022/04/26 14:00:25;;;;;;;4.47;4.27;;;17.60;90.10;;;;;;4951331;29;20468;-69
2022/04/26 14:02:51;;;;;;;4.37;4.17;;;17.40;88.10;;;;;;4951660;29;20495;-69
2022/04/26 14:05:20;;;;;;;4.67;4.27;;;17.30;88.70;;;;;;4952774;29;20492;-69
2022/04/26 14:07:47;;;;;;;4.97;4.67;;;17.20;89.20;;;;;;4952739;28;20477;-69
2022/04/26 14:10:15;;;;;;;4.50;4.30;;;17.20;90.00;;;;;;4952463;29;20562;-69
2022/04/26 14:12:43;;;;;;;5.10;4.90;;;17.30;89.70;;;;;;4952456;29;20464;-69
2022/04/26 14:23:35;;;;;;;4.73;4.40;;;17.40;88.90;;;;;;4952980;28;20520;-69
2022/04/26 14:26:03;;;;;;;4.67;4.37;;;17.30;88.20;;;;;;4955999;28;20528;-69
2022/04/26 14:28:32;;;;;;;5.17;4.77;;;17.30;87.50;;;;;;4956011;28;20464;-69
2022/04/26 14:30:58;;;;;;;5.97;5.43;;;17.30;85.80;;;;;;4954371;29;20575;-69
2022/04/26 14:33:25;;;;;;;4.83;4.60;;;17.10;85.20;;;;;;4955795;29;20468;-69
2022/04/26 14:35:53;;;;;;;5.13;4.73;;;17.00;86.80;;;;;;4955777;28;20571;-69
2022/04/26 14:38:20;;;;;;;4.83;4.63;;;17.10;86.80;;;;;;4955866;29;20781;-69
2022/04/26 14:40:47;;;;;;;4.47;4.20;;;17.10;85.80;;;;;;4955077;29;20468;-69
2022/04/26 14:43:14;;;;;;;4.60;4.30;;;17.10;86.70;;;;;;4954417;29;20827;-69
2022/04/26 14:45:45;;;;;;;5.00;4.63;;;17.10;86.60;;;;;;4947213;29;20490;-69
2022/04/26 14:48:16;;;;;;;5.30;4.90;;;17.10;86.30;;;;;;4955189;28;20475;-69
2022/04/26 14:50:44;;;;;;;4.30;4.10;;;17.00;85.20;;;;;;4954905;28;20480;-68
2022/04/26 14:53:10;;;;;;;4.50;4.13;;;16.90;85.90;;;;;;4955347;28;20826;-69
2022/04/26 14:55:38;;;;;;;5.60;5.30;;;16.90;85.00;;;;;;4955196;28;20460;-69
2022/04/26 14:58:06;;;;;;;4.10;4.00;;;16.70;85.70;;;;;;4954950;28;20468;-69
2022/04/26 15:00:35;;;;;;;4.70;4.40;;;16.60;85.10;;;;;;4954324;28;20903;-69
2022/04/26 15:03:03;;;;;;;4.90;4.50;;;16.70;86.20;;;;;;4954790;28;20467;-69
2022/04/26 15:05:30;;;;;;;4.50;4.30;;;16.70;85.50;;;;;;4954894;28;20497;-69
2022/04/26 15:10:41;;;;;;;4.93;4.63;;;16.80;84.80;;;;;;4954791;29;20455;-69
2022/04/26 15:18:39;;;;;;;4.40;4.20;;;17.40;85.60;;;;;;4956882;29;20456;-70
2022/04/26 15:21:07;;;;;;;5.30;4.90;;;17.40;84.60;;;;;;4957370;28;20475;-69
2022/04/26 15:23:35;;;;;;;4.40;4.10;;;17.30;84.10;;;;;;4956297;28;20652;-69
2022/04/26 15:26:03;;;;;;;4.73;4.53;;;17.20;84.90;;;;;;4955338;28;20500;-69
2022/04/26 15:28:30;;;;;;;5.20;4.87;;;17.10;83.30;;;;;;4954904;28;20469;-69
2022/04/26 15:30:57;;;;;;;4.30;4.10;;;16.80;83.70;;;;;;4953347;28;20507;-69
2022/04/26 15:33:24;;;;;;;4.63;4.30;;;16.80;85.00;;;;;;4954676;28;20559;-69
2022/04/26 15:35:52;;;;;;;4.37;4.13;;;16.80;84.20;;;;;;4954278;28;20535;-69
2022/04/26 15:38:19;;;;;;;4.90;4.70;;;16.80;83.30;;;;;;4954549;28;20472;-70
2022/04/26 15:40:46;;;;;;;4.10;3.80;;;16.90;83.60;;;;;;4953993;28;20491;-69
2022/04/26 15:43:14;;;;;;;5.70;5.30;;;17.10;83.20;;;;;;4954531;28;20837;-70
2022/04/26 15:45:42;;;;;;;5.20;4.80;;;17.20;81.10;;;;;;4954095;28;20506;-70
2022/04/26 15:48:09;;;;;;;4.00;3.90;;;17.30;81.70;;;;;;4954103;28;20465;-70
2022/04/26 15:50:39;;;;;;;4.70;4.40;;;17.40;82.70;;;;;;4953469;28;20473;-70
2022/04/26 15:53:07;;;;;;;4.30;4.00;;;17.40;82.50;;;;;;4954302;29;20483;-70
2022/04/26 15:55:33;;;;;;;3.97;3.70;;;17.30;83.50;;;;;;4954305;28;20468;-70
2022/04/26 15:58:00;;;;;;;4.47;4.17;;;17.30;84.00;;;;;;4954631;28;20464;-70
2022/04/26 16:00:27;;;;;;;4.27;4.07;;;17.20;83.30;;;;;;4953456;28;20490;-69
2022/04/26 16:02:54;;;;;;;3.70;3.60;;;17.20;83.70;;;;;;4953689;28;20477;-70
2022/04/26 16:05:21;;;;;;;4.50;4.10;;;17.20;82.10;;;;;;4949975;28;20461;-69
2022/04/26 16:07:48;;;;;;;4.70;4.30;;;17.20;82.10;;;;;;4953642;28;20848;-69
2022/04/26 16:21:12;;;;;;;5.07;4.77;;;16.80;82.80;;;;;;4953358;29;20455;-70
2022/04/26 16:23:39;;;;;;;4.53;4.33;;;16.60;82.60;;;;;;4953579;29;20977;-70
2022/04/26 16:26:08;;;;;;;5.13;4.73;;;16.60;82.90;;;;;;4953212;28;20834;-69
2022/04/26 16:28:36;;;;;;;5.27;4.87;;;16.60;83.00;;;;;;4953673;29;20461;-71
2022/04/26 16:31:04;;;;;;;4.70;4.37;;;16.50;82.00;;;;;;4952209;29;20866;-69
2022/04/26 16:33:30;;;;;;;4.60;4.30;;;16.50;82.90;;;;;;4953512;29;20479;-69
2022/04/26 16:35:57;;;;;;;5.30;4.63;;;16.50;83.00;;;;;;4953171;28;20480;-72
2022/04/26 16:38:24;;;;;;;5.40;4.60;;;16.50;82.60;;;;;;4953302;29;20468;-69
2022/04/26 16:40:51;;;;;;;6.37;4.30;;;16.40;83.60;;;;;;4952550;28;20468;-70
2022/04/26 16:43:19;;;;;;;5.43;4.93;;;16.40;83.90;;;;;;4953061;29;20468;-69
2022/04/26 16:45:47;;;;;;;7.30;5.30;;;16.40;83.40;;;;;;4952235;28;20464;-69
2022/04/26 16:48:14;;;;;;;3.90;3.70;;;16.40;84.50;;;;;;4952367;28;20476;-70
2022/04/26 16:50:41;;;;;;;4.20;4.00;;;16.50;84.40;;;;;;4952460;29;20549;-70
2022/04/26 16:53:07;;;;;;;4.30;3.67;;;16.50;83.20;;;;;;4953175;29;20571;-69
2022/04/26 16:55:34;;;;;;;5.37;4.90;;;16.50;83.10;;;;;;4953485;28;20476;-69
2022/04/26 16:58:02;;;;;;;4.60;4.30;;;16.50;82.20;;;;;;4953512;29;20480;-70
2022/04/26 17:00:31;;;;;;;4.73;4.40;;;16.40;83.10;;;;;;4952718;29;20479;-69
2022/04/26 17:02:58;;;;;;;4.30;4.10;;;16.40;83.30;;;;;;4953199;29;20476;-69
2022/04/26 17:05:27;;;;;;;9.93;5.73;;;16.40;82.80;;;;;;4953449;29;20468;-69
2022/04/26 17:07:55;;;;;;;6.20;5.80;;;16.30;83.30;;;;;;4952790;28;21021;-72
2022/04/26 17:10:21;;;;;;;6.10;5.60;;;16.20;82.70;;;;;;4952466;29;20471;-71
2022/04/26 17:12:49;;;;;;;4.60;4.27;;;16.20;83.00;;;;;;4952932;29;20471;-69
2022/04/26 17:15:16;;;;;;;4.43;4.23;;;16.10;83.40;;;;;;4952543;29;20582;-70
2022/04/26 17:17:45;;;;;;;4.23;4.03;;;16.10;83.20;;;;;;4946363;29;20716;-70
2022/04/26 17:20:13;;;;;;;4.43;4.17;;;16.00;83.90;;;;;;4952500;28;20512;-71
2022/04/26 17:22:40;;;;;;;5.70;4.57;;;16.00;83.10;;;;;;4953622;28;20561;-69
2022/04/26 17:25:16;;;;;;;3.23;3.03;;;15.90;83.30;;;;;;4953166;28;20500;-69
2022/04/26 17:27:44;;;;;;;3.50;3.20;;;15.90;84.00;;;;;;4953860;28;20494;-69
2022/04/26 17:30:12;;;;;;;3.60;3.50;;;15.90;84.30;;;;;;4952933;28;20464;-71
2022/04/26 17:32:40;;;;;;;4.53;4.13;;;15.90;84.30;;;;;;4953043;28;20475;-70
2022/04/26 17:35:09;;;;;;;4.40;4.03;;;15.90;84.10;;;;;;4952829;28;20497;-71